sensor_id;sensor_type;location;lat;lon;timestamp;temperature;humidity
65470;DHT22;52067;50.710;14.492;2023-09-07T00:01:14;12.53;86.88
65470;DHT22;52067;50.710;14.492;2023-09-07T00:03:39;12.61;86.80
65470;DHT22;52067;50.710;14.492;2023-09-07T00:06:06;12.53;87.16
65470;DHT22;52067;50.710;14.492;2023-09-07T00:08:31;12.56;86.99
65470;DHT22;52067;50.710;14.492;2023-09-07T00:11:04;12.63;86.76
65470;DHT22;52067;50.710;14.492;2023-09-07T00:13:30;12.57;86.86
65470;DHT22;52067;50.710;14.492;2023-09-07T00:15:58;12.48;86.85
65470;DHT22;52067;50.710;14.492;2023-09-07T00:18:23;12.23;88.00
65470;DHT22;52067;50.710;14.492;2023-09-07T00:20:48;12.30;87.33
65470;DHT22;52067;50.710;14.492;2023-09-07T00:23:14;12.32;87.19
65470;DHT22;52067;50.710;14.492;2023-09-07T00:25:39;12.22;87.99
65470;DHT22;52067;50.710;14.492;2023-09-07T00:28:05;12.25;87.35
65470;DHT22;52067;50.710;14.492;2023-09-07T00:30:30;12.29;87.30
65470;DHT22;52067;50.710;14.492;2023-09-07T00:32:55;12.10;87.54
65470;DHT22;52067;50.710;14.492;2023-09-07T00:35:20;12.13;87.51
65470;DHT22;52067;50.710;14.492;2023-09-07T00:37:46;12.10;87.63
65470;DHT22;52067;50.710;14.492;2023-09-07T00:40:11;12.07;87.66
65470;DHT22;52067;50.710;14.492;2023-09-07T00:42:36;12.27;87.03
65470;DHT22;52067;50.710;14.492;2023-09-07T00:45:02;12.06;87.68
65470;DHT22;52067;50.710;14.492;2023-09-07T00:47:27;11.82;88.66
65470;DHT22;52067;50.710;14.492;2023-09-07T00:49:53;11.85;87.95
65470;DHT22;52067;50.710;14.492;2023-09-07T00:52:19;12.00;87.72
65470;DHT22;52067;50.710;14.492;2023-09-07T00:54:45;12.00;87.57
65470;DHT22;52067;50.710;14.492;2023-09-07T00:57:10;11.95;87.62
65470;DHT22;52067;50.710;14.492;2023-09-07T00:59:35;11.77;88.74
65470;DHT22;52067;50.710;14.492;2023-09-07T01:02:01;11.77;88.52
65470;DHT22;52067;50.710;14.492;2023-09-07T01:04:26;11.75;88.42
65470;DHT22;52067;50.710;14.492;2023-09-07T01:07:00;11.55;88.95
65470;DHT22;52067;50.710;14.492;2023-09-07T01:09:28;11.48;89.24
65470;DHT22;52067;50.710;14.492;2023-09-07T01:11:54;11.45;89.19
65470;DHT22;52067;50.710;14.492;2023-09-07T01:14:19;11.19;89.66
65470;DHT22;52067;50.710;14.492;2023-09-07T01:16:45;11.44;89.32
65470;DHT22;52067;50.710;14.492;2023-09-07T01:19:10;11.58;89.03
65470;DHT22;52067;50.710;14.492;2023-09-07T01:21:36;11.51;89.14
65470;DHT22;52067;50.710;14.492;2023-09-07T01:24:03;11.48;89.16
65470;DHT22;52067;50.710;14.492;2023-09-07T01:26:29;11.51;88.74
65470;DHT22;52067;50.710;14.492;2023-09-07T01:28:55;11.44;89.23
65470;DHT22;52067;50.710;14.492;2023-09-07T01:31:20;11.30;89.77
65470;DHT22;52067;50.710;14.492;2023-09-07T01:33:45;11.45;89.17
65470;DHT22;52067;50.710;14.492;2023-09-07T01:36:11;11.34;89.11
65470;DHT22;52067;50.710;14.492;2023-09-07T01:38:36;11.21;89.63
65470;DHT22;52067;50.710;14.492;2023-09-07T01:41:01;11.09;89.88
65470;DHT22;52067;50.710;14.492;2023-09-07T01:43:27;11.26;89.68
65470;DHT22;52067;50.710;14.492;2023-09-07T01:45:52;11.23;89.67
65470;DHT22;52067;50.710;14.492;2023-09-07T01:48:17;11.19;89.33
65470;DHT22;52067;50.710;14.492;2023-09-07T01:50:42;11.19;89.31
65470;DHT22;52067;50.710;14.492;2023-09-07T01:53:08;11.03;89.34
65470;DHT22;52067;50.710;14.492;2023-09-07T01:55:33;10.93;89.60
65470;DHT22;52067;50.710;14.492;2023-09-07T01:57:58;10.93;90.55
65470;DHT22;52067;50.710;14.492;2023-09-07T02:00:24;11.04;89.94
65470;DHT22;52067;50.710;14.492;2023-09-07T02:02:49;11.21;89.57
65470;DHT22;52067;50.710;14.492;2023-09-07T02:05:14;11.19;89.93
65470;DHT22;52067;50.710;14.492;2023-09-07T02:07:40;11.09;89.02
65470;DHT22;52067;50.710;14.492;2023-09-07T02:10:05;10.89;89.49
65470;DHT22;52067;50.710;14.492;2023-09-07T02:12:31;11.01;89.54
65470;DHT22;52067;50.710;14.492;2023-09-07T02:14:56;10.82;89.37
65470;DHT22;52067;50.710;14.492;2023-09-07T02:17:21;11.04;89.15
65470;DHT22;52067;50.710;14.492;2023-09-07T02:19:46;11.10;88.92
65470;DHT22;52067;50.710;14.492;2023-09-07T02:22:12;10.89;89.24
65470;DHT22;52067;50.710;14.492;2023-09-07T02:24:37;11.06;89.49
65470;DHT22;52067;50.710;14.492;2023-09-07T02:27:03;11.04;88.99
65470;DHT22;52067;50.710;14.492;2023-09-07T02:29:28;11.07;88.74
65470;DHT22;52067;50.710;14.492;2023-09-07T02:31:53;11.00;89.34
65470;DHT22;52067;50.710;14.492;2023-09-07T02:34:19;11.03;89.08
65470;DHT22;52067;50.710;14.492;2023-09-07T02:36:44;11.19;88.58
65470;DHT22;52067;50.710;14.492;2023-09-07T02:39:10;10.93;88.52
65470;DHT22;52067;50.710;14.492;2023-09-07T02:41:36;10.93;88.92
65470;DHT22;52067;50.710;14.492;2023-09-07T02:44:01;10.93;88.80
65470;DHT22;52067;50.710;14.492;2023-09-07T02:46:28;10.90;88.40
65470;DHT22;52067;50.710;14.492;2023-09-07T02:48:53;10.99;88.50
65470;DHT22;52067;50.710;14.492;2023-09-07T02:51:22;10.93;88.90
65470;DHT22;52067;50.710;14.492;2023-09-07T02:53:47;10.72;88.83
65470;DHT22;52067;50.710;14.492;2023-09-07T02:56:12;10.90;88.76
65470;DHT22;52067;50.710;14.492;2023-09-07T02:58:38;10.80;88.65
65470;DHT22;52067;50.710;14.492;2023-09-07T03:01:06;10.82;89.07
65470;DHT22;52067;50.710;14.492;2023-09-07T03:03:33;10.89;88.74
65470;DHT22;52067;50.710;14.492;2023-09-07T03:06:07;10.95;88.43
65470;DHT22;52067;50.710;14.492;2023-09-07T03:08:33;10.89;88.42
65470;DHT22;52067;50.710;14.492;2023-09-07T03:10:58;10.72;88.89
65470;DHT22;52067;50.710;14.492;2023-09-07T03:13:23;10.83;88.40
65470;DHT22;52067;50.710;14.492;2023-09-07T03:15:52;10.95;88.03
65470;DHT22;52067;50.710;14.492;2023-09-07T03:18:18;10.82;88.09
65470;DHT22;52067;50.710;14.492;2023-09-07T03:20:43;10.53;88.82
65470;DHT22;52067;50.710;14.492;2023-09-07T03:23:08;10.72;88.39
65470;DHT22;52067;50.710;14.492;2023-09-07T03:25:33;10.75;88.19
65470;DHT22;52067;50.710;14.492;2023-09-07T03:27:59;10.68;88.63
65470;DHT22;52067;50.710;14.492;2023-09-07T03:30:24;10.52;88.44
65470;DHT22;52067;50.710;14.492;2023-09-07T03:32:49;10.30;88.99
65470;DHT22;52067;50.710;14.492;2023-09-07T03:35:15;10.38;89.56
65470;DHT22;52067;50.710;14.492;2023-09-07T03:37:41;10.45;88.90
65470;DHT22;52067;50.710;14.492;2023-09-07T03:40:07;10.46;88.84
65470;DHT22;52067;50.710;14.492;2023-09-07T03:42:34;10.15;89.42
65470;DHT22;52067;50.710;14.492;2023-09-07T03:45:00;10.20;89.88
65470;DHT22;52067;50.710;14.492;2023-09-07T03:47:25;10.24;89.45
65470;DHT22;52067;50.710;14.492;2023-09-07T03:49:54;10.07;89.73
65470;DHT22;52067;50.710;14.492;2023-09-07T03:52:19;10.21;89.79
65470;DHT22;52067;50.710;14.492;2023-09-07T03:54:47;10.18;89.38
65470;DHT22;52067;50.710;14.492;2023-09-07T03:57:12;10.31;89.42
65470;DHT22;52067;50.710;14.492;2023-09-07T03:59:37;10.22;89.60
65470;DHT22;52067;50.710;14.492;2023-09-07T04:02:03;10.22;89.63
65470;DHT22;52067;50.710;14.492;2023-09-07T04:04:28;10.42;89.07
65470;DHT22;52067;50.710;14.492;2023-09-07T04:06:53;10.44;88.54
65470;DHT22;52067;50.710;14.492;2023-09-07T04:09:18;10.41;88.42
65470;DHT22;52067;50.710;14.492;2023-09-07T04:11:44;10.46;88.27
65470;DHT22;52067;50.710;14.492;2023-09-07T04:14:09;10.52;88.26
65470;DHT22;52067;50.710;14.492;2023-09-07T04:16:34;10.49;88.00
65470;DHT22;52067;50.710;14.492;2023-09-07T04:18:59;10.51;88.02
65470;DHT22;52067;50.710;14.492;2023-09-07T04:21:25;10.35;87.96
65470;DHT22;52067;50.710;14.492;2023-09-07T04:23:50;10.11;88.97
65470;DHT22;52067;50.710;14.492;2023-09-07T04:26:15;10.05;88.90
65470;DHT22;52067;50.710;14.492;2023-09-07T04:28:41;10.24;88.97
65470;DHT22;52067;50.710;14.492;2023-09-07T04:31:06;10.18;88.67
65470;DHT22;52067;50.710;14.492;2023-09-07T04:33:32;10.35;88.53
65470;DHT22;52067;50.710;14.492;2023-09-07T04:36:18;10.31;88.19
65470;DHT22;52067;50.710;14.492;2023-09-07T04:38:43;10.32;88.23
65470;DHT22;52067;50.710;14.492;2023-09-07T04:41:08;10.48;88.16
65470;DHT22;52067;50.710;14.492;2023-09-07T04:43:34;10.45;88.02
65470;DHT22;52067;50.710;14.492;2023-09-07T04:45:59;10.53;88.03
65470;DHT22;52067;50.710;14.492;2023-09-07T04:48:25;10.51;87.93
65470;DHT22;52067;50.710;14.492;2023-09-07T04:51:03;10.28;88.43
65470;DHT22;52067;50.710;14.492;2023-09-07T04:53:29;10.24;88.57
65470;DHT22;52067;50.710;14.492;2023-09-07T04:55:54;10.15;89.22
65470;DHT22;52067;50.710;14.492;2023-09-07T04:58:20;10.34;89.04
65470;DHT22;52067;50.710;14.492;2023-09-07T05:00:45;10.52;88.16
65470;DHT22;52067;50.710;14.492;2023-09-07T05:03:10;10.40;88.77
65470;DHT22;52067;50.710;14.492;2023-09-07T05:05:35;10.42;89.15
65470;DHT22;52067;50.710;14.492;2023-09-07T05:08:01;10.61;88.64
65470;DHT22;52067;50.710;14.492;2023-09-07T05:10:26;10.63;88.41
65470;DHT22;52067;50.710;14.492;2023-09-07T05:12:52;10.77;88.43
65470;DHT22;52067;50.710;14.492;2023-09-07T05:15:17;10.95;87.86
65470;DHT22;52067;50.710;14.492;2023-09-07T05:17:42;11.10;87.38
65470;DHT22;52067;50.710;14.492;2023-09-07T05:20:08;11.09;87.45
65470;DHT22;52067;50.710;14.492;2023-09-07T05:22:34;11.34;87.38
65470;DHT22;52067;50.710;14.492;2023-09-07T05:25:02;11.40;87.48
65470;DHT22;52067;50.710;14.492;2023-09-07T05:27:28;11.58;87.03
65470;DHT22;52067;50.710;14.492;2023-09-07T05:29:53;11.20;88.24
65470;DHT22;52067;50.710;14.492;2023-09-07T05:32:18;11.55;88.02
65470;DHT22;52067;50.710;14.492;2023-09-07T05:34:43;11.62;87.99
65470;DHT22;52067;50.710;14.492;2023-09-07T05:37:09;11.83;87.39
65470;DHT22;52067;50.710;14.492;2023-09-07T05:39:34;12.02;87.59
65470;DHT22;52067;50.710;14.492;2023-09-07T05:41:59;12.09;87.60
65470;DHT22;52067;50.710;14.492;2023-09-07T05:44:25;12.26;87.81
65470;DHT22;52067;50.710;14.492;2023-09-07T05:46:50;12.33;87.37
65470;DHT22;52067;50.710;14.492;2023-09-07T05:49:15;12.47;87.82
65470;DHT22;52067;50.710;14.492;2023-09-07T05:51:40;12.38;87.87
65470;DHT22;52067;50.710;14.492;2023-09-07T05:54:06;12.67;87.60
65470;DHT22;52067;50.710;14.492;2023-09-07T05:56:31;12.87;86.87
65470;DHT22;52067;50.710;14.492;2023-09-07T05:58:58;13.05;86.65
65470;DHT22;52067;50.710;14.492;2023-09-07T06:01:23;13.09;87.10
65470;DHT22;52067;50.710;14.492;2023-09-07T06:03:48;13.15;86.82
65470;DHT22;52067;50.710;14.492;2023-09-07T06:06:14;13.26;87.05
65470;DHT22;52067;50.710;14.492;2023-09-07T06:08:39;13.36;87.40
65470;DHT22;52067;50.710;14.492;2023-09-07T06:11:04;13.69;86.83
65470;DHT22;52067;50.710;14.492;2023-09-07T06:13:30;13.77;85.92
65470;DHT22;52067;50.710;14.492;2023-09-07T06:15:56;13.85;86.98
65470;DHT22;52067;50.710;14.492;2023-09-07T06:18:21;13.98;86.92
65470;DHT22;52067;50.710;14.492;2023-09-07T06:20:46;14.31;86.66
65470;DHT22;52067;50.710;14.492;2023-09-07T06:23:12;14.32;86.84
65470;DHT22;52067;50.710;14.492;2023-09-07T06:25:37;14.62;85.76
65470;DHT22;52067;50.710;14.492;2023-09-07T06:28:03;14.84;85.39
65470;DHT22;52067;50.710;14.492;2023-09-07T06:30:28;14.93;85.99
65470;DHT22;52067;50.710;14.492;2023-09-07T06:32:53;14.69;86.37
65470;DHT22;52067;50.710;14.492;2023-09-07T06:35:19;15.04;86.23
65470;DHT22;52067;50.710;14.492;2023-09-07T06:37:44;15.16;85.06
65470;DHT22;52067;50.710;14.492;2023-09-07T06:40:09;15.37;84.42
65470;DHT22;52067;50.710;14.492;2023-09-07T06:42:36;15.37;83.78
65470;DHT22;52067;50.710;14.492;2023-09-07T06:45:01;15.63;83.35
65470;DHT22;52067;50.710;14.492;2023-09-07T06:47:27;15.57;83.79
65470;DHT22;52067;50.710;14.492;2023-09-07T06:49:53;15.58;83.70
65470;DHT22;52067;50.710;14.492;2023-09-07T06:52:19;15.90;83.15
65470;DHT22;52067;50.710;14.492;2023-09-07T06:54:44;16.17;82.56
65470;DHT22;52067;50.710;14.492;2023-09-07T06:57:09;16.23;81.99
65470;DHT22;52067;50.710;14.492;2023-09-07T06:59:34;16.38;82.50
65470;DHT22;52067;50.710;14.492;2023-09-07T07:02:00;16.61;82.28
65470;DHT22;52067;50.710;14.492;2023-09-07T07:04:26;16.64;83.69
65470;DHT22;52067;50.710;14.492;2023-09-07T07:06:51;16.89;82.35
65470;DHT22;52067;50.710;14.492;2023-09-07T07:09:16;16.96;82.76
65470;DHT22;52067;50.710;14.492;2023-09-07T07:11:42;17.24;80.91
65470;DHT22;52067;50.710;14.492;2023-09-07T07:14:08;17.39;79.96
65470;DHT22;52067;50.710;14.492;2023-09-07T07:16:33;17.49;79.17
65470;DHT22;52067;50.710;14.492;2023-09-07T07:18:59;17.55;78.13
65470;DHT22;52067;50.710;14.492;2023-09-07T07:21:24;17.81;76.55
65470;DHT22;52067;50.710;14.492;2023-09-07T07:23:49;17.95;72.49
65470;DHT22;52067;50.710;14.492;2023-09-07T07:26:15;18.06;71.64
65470;DHT22;52067;50.710;14.492;2023-09-07T07:28:40;18.16;75.66
65470;DHT22;52067;50.710;14.492;2023-09-07T07:31:08;18.49;72.29
65470;DHT22;52067;50.710;14.492;2023-09-07T07:33:37;18.67;72.80
65470;DHT22;52067;50.710;14.492;2023-09-07T07:36:03;18.81;72.07
65470;DHT22;52067;50.710;14.492;2023-09-07T07:38:28;18.86;74.09
65470;DHT22;52067;50.710;14.492;2023-09-07T07:40:53;19.01;74.24
65470;DHT22;52067;50.710;14.492;2023-09-07T07:43:19;19.29;72.86
65470;DHT22;52067;50.710;14.492;2023-09-07T07:45:44;19.44;72.64
65470;DHT22;52067;50.710;14.492;2023-09-07T07:48:09;19.49;70.12
65470;DHT22;52067;50.710;14.492;2023-09-07T07:50:38;19.73;69.65
65470;DHT22;52067;50.710;14.492;2023-09-07T07:53:04;19.94;68.85
65470;DHT22;52067;50.710;14.492;2023-09-07T07:55:33;20.16;68.33
65470;DHT22;52067;50.710;14.492;2023-09-07T07:58:03;20.28;66.49
65470;DHT22;52067;50.710;14.492;2023-09-07T08:00:30;20.45;68.95
65470;DHT22;52067;50.710;14.492;2023-09-07T08:02:56;20.56;66.49
65470;DHT22;52067;50.710;14.492;2023-09-07T08:05:21;20.63;66.44
65470;DHT22;52067;50.710;14.492;2023-09-07T08:07:46;20.78;66.51
65470;DHT22;52067;50.710;14.492;2023-09-07T08:10:12;20.89;68.47
65470;DHT22;52067;50.710;14.492;2023-09-07T08:12:37;21.00;67.68
65470;DHT22;52067;50.710;14.492;2023-09-07T08:15:02;21.22;67.56
65470;DHT22;52067;50.710;14.492;2023-09-07T08:17:28;21.34;68.94
65470;DHT22;52067;50.710;14.492;2023-09-07T08:19:53;21.51;65.05
65470;DHT22;52067;50.710;14.492;2023-09-07T08:22:21;21.64;66.21
65470;DHT22;52067;50.710;14.492;2023-09-07T08:24:47;21.70;66.03
65470;DHT22;52067;50.710;14.492;2023-09-07T08:27:13;21.75;66.57
65470;DHT22;52067;50.710;14.492;2023-09-07T08:29:43;21.81;65.99
65470;DHT22;52067;50.710;14.492;2023-09-07T08:32:12;21.94;65.69
65470;DHT22;52067;50.710;14.492;2023-09-07T08:34:39;22.06;64.66
65470;DHT22;52067;50.710;14.492;2023-09-07T08:37:05;22.16;62.77
65470;DHT22;52067;50.710;14.492;2023-09-07T08:39:33;22.35;61.91
65470;DHT22;52067;50.710;14.492;2023-09-07T08:41:59;22.48;61.89
65470;DHT22;52067;50.710;14.492;2023-09-07T08:44:26;22.49;61.15
65470;DHT22;52067;50.710;14.492;2023-09-07T08:46:51;22.71;57.90
65470;DHT22;52067;50.710;14.492;2023-09-07T08:49:17;22.87;62.27
65470;DHT22;52067;50.710;14.492;2023-09-07T08:51:44;23.06;59.14
65470;DHT22;52067;50.710;14.492;2023-09-07T08:54:09;23.04;59.78
65470;DHT22;52067;50.710;14.492;2023-09-07T08:56:35;22.81;59.05
65470;DHT22;52067;50.710;14.492;2023-09-07T08:59:00;23.25;58.05
65470;DHT22;52067;50.710;14.492;2023-09-07T09:01:26;23.39;59.99
65470;DHT22;52067;50.710;14.492;2023-09-07T09:03:51;23.52;56.58
65470;DHT22;52067;50.710;14.492;2023-09-07T09:06:17;23.54;56.16
65470;DHT22;52067;50.710;14.492;2023-09-07T09:08:47;23.45;59.03
65470;DHT22;52067;50.710;14.492;2023-09-07T09:11:16;23.45;58.03
65470;DHT22;52067;50.710;14.492;2023-09-07T09:13:41;23.58;57.96
65470;DHT22;52067;50.710;14.492;2023-09-07T09:16:07;23.76;57.71
65470;DHT22;52067;50.710;14.492;2023-09-07T09:18:32;23.62;57.44
65470;DHT22;52067;50.710;14.492;2023-09-07T09:20:58;23.49;58.39
65470;DHT22;52067;50.710;14.492;2023-09-07T09:23:24;23.44;60.16
65470;DHT22;52067;50.710;14.492;2023-09-07T09:25:49;23.99;57.57
65470;DHT22;52067;50.710;14.492;2023-09-07T09:28:15;24.02;57.24
65470;DHT22;52067;50.710;14.492;2023-09-07T09:30:41;24.30;57.88
65470;DHT22;52067;50.710;14.492;2023-09-07T09:33:08;24.38;57.22
65470;DHT22;52067;50.710;14.492;2023-09-07T09:35:34;24.45;58.26
65470;DHT22;52067;50.710;14.492;2023-09-07T09:38:00;24.61;55.45
65470;DHT22;52067;50.710;14.492;2023-09-07T09:40:29;24.72;55.14
65470;DHT22;52067;50.710;14.492;2023-09-07T09:42:55;24.73;54.40
65470;DHT22;52067;50.710;14.492;2023-09-07T09:45:21;24.95;55.15
65470;DHT22;52067;50.710;14.492;2023-09-07T09:47:48;25.02;55.02
65470;DHT22;52067;50.710;14.492;2023-09-07T09:50:15;25.08;52.41
65470;DHT22;52067;50.710;14.492;2023-09-07T09:52:41;25.46;52.54
65470;DHT22;52067;50.710;14.492;2023-09-07T09:55:08;25.57;50.65
65470;DHT22;52067;50.710;14.492;2023-09-07T09:57:34;26.76;48.74
65470;DHT22;52067;50.710;14.492;2023-09-07T10:00:00;28.89;45.40
65470;DHT22;52067;50.710;14.492;2023-09-07T10:02:32;29.18;44.01
65470;DHT22;52067;50.710;14.492;2023-09-07T10:04:59;29.84;44.17
65470;DHT22;52067;50.710;14.492;2023-09-07T10:07:43;30.70;40.01
65470;DHT22;52067;50.710;14.492;2023-09-07T10:10:12;29.88;42.57
65470;DHT22;52067;50.710;14.492;2023-09-07T10:12:42;30.46;40.37
65470;DHT22;52067;50.710;14.492;2023-09-07T10:15:19;30.80;41.93
65470;DHT22;52067;50.710;14.492;2023-09-07T10:17:44;31.59;39.49
65470;DHT22;52067;50.710;14.492;2023-09-07T10:20:11;31.58;38.56
65470;DHT22;52067;50.710;14.492;2023-09-07T10:22:37;30.16;40.19
65470;DHT22;52067;50.710;14.492;2023-09-07T10:25:02;31.85;39.25
65470;DHT22;52067;50.710;14.492;2023-09-07T10:27:36;31.63;37.47
65470;DHT22;52067;50.710;14.492;2023-09-07T10:30:01;31.07;38.97
65470;DHT22;52067;50.710;14.492;2023-09-07T10:32:40;32.27;38.42
65470;DHT22;52067;50.710;14.492;2023-09-07T10:35:14;31.45;38.68
65470;DHT22;52067;50.710;14.492;2023-09-07T10:37:40;30.19;39.03
65470;DHT22;52067;50.710;14.492;2023-09-07T10:40:06;31.86;36.74
65470;DHT22;52067;50.710;14.492;2023-09-07T10:42:36;31.27;37.04
65470;DHT22;52067;50.710;14.492;2023-09-07T10:45:09;31.82;36.37
65470;DHT22;52067;50.710;14.492;2023-09-07T10:47:35;30.05;38.71
65470;DHT22;52067;50.710;14.492;2023-09-07T10:50:00;31.11;37.09
65470;DHT22;52067;50.710;14.492;2023-09-07T10:52:26;32.36;37.26
65470;DHT22;52067;50.710;14.492;2023-09-07T10:54:56;32.84;34.66
65470;DHT22;52067;50.710;14.492;2023-09-07T10:57:24;32.53;35.54
65470;DHT22;52067;50.710;14.492;2023-09-07T10:59:50;31.70;35.03
65470;DHT22;52067;50.710;14.492;2023-09-07T11:02:15;33.73;34.05
65470;DHT22;52067;50.710;14.492;2023-09-07T11:04:41;33.53;32.29
65470;DHT22;52067;50.710;14.492;2023-09-07T11:07:06;31.90;34.26
65470;DHT22;52067;50.710;14.492;2023-09-07T11:09:31;32.68;34.35
65470;DHT22;52067;50.710;14.492;2023-09-07T11:11:57;33.04;33.61
65470;DHT22;52067;50.710;14.492;2023-09-07T11:14:22;33.35;32.74
65470;DHT22;52067;50.710;14.492;2023-09-07T11:16:47;32.91;31.61
65470;DHT22;52067;50.710;14.492;2023-09-07T11:19:13;32.89;32.58
65470;DHT22;52067;50.710;14.492;2023-09-07T11:21:40;33.26;31.54
65470;DHT22;52067;50.710;14.492;2023-09-07T11:24:05;32.36;32.30
65470;DHT22;52067;50.710;14.492;2023-09-07T11:26:43;33.87;32.17
65470;DHT22;52067;50.710;14.492;2023-09-07T11:29:13;33.50;32.61
65470;DHT22;52067;50.710;14.492;2023-09-07T11:31:38;33.39;31.35
65470;DHT22;52067;50.710;14.492;2023-09-07T11:34:03;33.87;31.06
65470;DHT22;52067;50.710;14.492;2023-09-07T11:36:33;33.86;31.75
65470;DHT22;52067;50.710;14.492;2023-09-07T11:38:58;33.46;31.16
65470;DHT22;52067;50.710;14.492;2023-09-07T11:41:24;33.37;31.41
65470;DHT22;52067;50.710;14.492;2023-09-07T11:43:49;32.58;30.18
65470;DHT22;52067;50.710;14.492;2023-09-07T11:46:14;32.81;31.04
65470;DHT22;52067;50.710;14.492;2023-09-07T11:48:40;33.02;30.12
65470;DHT22;52067;50.710;14.492;2023-09-07T11:51:05;33.93;30.42
65470;DHT22;52067;50.710;14.492;2023-09-07T11:53:32;33.08;31.48
65470;DHT22;52067;50.710;14.492;2023-09-07T11:55:57;33.30;31.05
65470;DHT22;52067;50.710;14.492;2023-09-07T11:58:23;33.12;32.36
65470;DHT22;52067;50.710;14.492;2023-09-07T12:00:49;34.04;30.37
65470;DHT22;52067;50.710;14.492;2023-09-07T12:03:15;33.62;30.30
65470;DHT22;52067;50.710;14.492;2023-09-07T12:05:40;33.37;32.54
65470;DHT22;52067;50.710;14.492;2023-09-07T12:08:07;33.46;30.89
65470;DHT22;52067;50.710;14.492;2023-09-07T12:10:32;33.50;31.75
65470;DHT22;52067;50.710;14.492;2023-09-07T12:12:58;33.50;34.02
65470;DHT22;52067;50.710;14.492;2023-09-07T12:15:23;34.78;29.35
65470;DHT22;52067;50.710;14.492;2023-09-07T12:17:49;33.84;28.74
65470;DHT22;52067;50.710;14.492;2023-09-07T12:20:19;34.11;30.51
65470;DHT22;52067;50.710;14.492;2023-09-07T12:22:44;34.02;30.49
65470;DHT22;52067;50.710;14.492;2023-09-07T12:25:09;34.42;30.53
65470;DHT22;52067;50.710;14.492;2023-09-07T12:27:38;35.30;29.11
65470;DHT22;52067;50.710;14.492;2023-09-07T12:30:03;34.44;28.21
65470;DHT22;52067;50.710;14.492;2023-09-07T12:32:33;33.84;28.48
65470;DHT22;52067;50.710;14.492;2023-09-07T12:34:59;34.45;29.14
65470;DHT22;52067;50.710;14.492;2023-09-07T12:37:24;32.86;32.43
65470;DHT22;52067;50.710;14.492;2023-09-07T12:39:50;31.93;31.53
65470;DHT22;52067;50.710;14.492;2023-09-07T12:42:16;32.98;30.85
65470;DHT22;52067;50.710;14.492;2023-09-07T12:44:41;33.59;29.45
65470;DHT22;52067;50.710;14.492;2023-09-07T12:47:06;33.49;29.65
65470;DHT22;52067;50.710;14.492;2023-09-07T12:49:31;34.22;29.31
65470;DHT22;52067;50.710;14.492;2023-09-07T12:51:57;34.08;27.75
65470;DHT22;52067;50.710;14.492;2023-09-07T12:54:22;33.97;29.25
65470;DHT22;52067;50.710;14.492;2023-09-07T12:56:48;33.81;30.77
65470;DHT22;52067;50.710;14.492;2023-09-07T12:59:13;34.49;29.98
65470;DHT22;52067;50.710;14.492;2023-09-07T13:01:39;34.21;29.31
65470;DHT22;52067;50.710;14.492;2023-09-07T13:04:04;33.30;31.24
65470;DHT22;52067;50.710;14.492;2023-09-07T13:06:30;34.00;30.64
65470;DHT22;52067;50.710;14.492;2023-09-07T13:08:55;33.96;30.18
65470;DHT22;52067;50.710;14.492;2023-09-07T13:11:21;35.06;30.27
65470;DHT22;52067;50.710;14.492;2023-09-07T13:13:46;35.48;27.48
65470;DHT22;52067;50.710;14.492;2023-09-07T13:16:11;36.88;27.06
65470;DHT22;52067;50.710;14.492;2023-09-07T13:18:37;35.55;28.67
65470;DHT22;52067;50.710;14.492;2023-09-07T13:21:02;36.35;28.40
65470;DHT22;52067;50.710;14.492;2023-09-07T13:23:30;34.80;28.31
65470;DHT22;52067;50.710;14.492;2023-09-07T13:25:56;34.75;29.68
65470;DHT22;52067;50.710;14.492;2023-09-07T13:28:21;35.65;27.62
65470;DHT22;52067;50.710;14.492;2023-09-07T13:30:47;35.41;28.45
65470;DHT22;52067;50.710;14.492;2023-09-07T13:33:12;36.31;27.38
65470;DHT22;52067;50.710;14.492;2023-09-07T13:35:37;36.08;26.79
65470;DHT22;52067;50.710;14.492;2023-09-07T13:38:04;36.44;27.77
65470;DHT22;52067;50.710;14.492;2023-09-07T13:40:29;35.89;27.37
65470;DHT22;52067;50.710;14.492;2023-09-07T13:42:55;35.86;27.08
65470;DHT22;52067;50.710;14.492;2023-09-07T13:45:20;36.49;26.62
65470;DHT22;52067;50.710;14.492;2023-09-07T13:47:46;35.68;27.28
65470;DHT22;52067;50.710;14.492;2023-09-07T13:50:11;35.29;27.98
65470;DHT22;52067;50.710;14.492;2023-09-07T13:52:36;36.44;27.49
65470;DHT22;52067;50.710;14.492;2023-09-07T13:55:02;36.15;28.01
65470;DHT22;52067;50.710;14.492;2023-09-07T13:57:27;36.36;27.46
65470;DHT22;52067;50.710;14.492;2023-09-07T13:59:52;36.54;28.21
65470;DHT22;52067;50.710;14.492;2023-09-07T14:02:17;37.15;27.13
65470;DHT22;52067;50.710;14.492;2023-09-07T14:04:43;37.19;25.51
65470;DHT22;52067;50.710;14.492;2023-09-07T14:07:11;35.30;26.76
65470;DHT22;52067;50.710;14.492;2023-09-07T14:09:37;35.55;26.41
65470;DHT22;52067;50.710;14.492;2023-09-07T14:12:03;35.37;26.54
65470;DHT22;52067;50.710;14.492;2023-09-07T14:14:28;34.93;26.67
65470;DHT22;52067;50.710;14.492;2023-09-07T14:16:54;34.52;27.80
65470;DHT22;52067;50.710;14.492;2023-09-07T14:19:21;34.82;28.64
65470;DHT22;52067;50.710;14.492;2023-09-07T14:21:47;36.05;26.79
65470;DHT22;52067;50.710;14.492;2023-09-07T14:24:12;34.51;28.14
65470;DHT22;52067;50.710;14.492;2023-09-07T14:26:37;34.83;28.58
65470;DHT22;52067;50.710;14.492;2023-09-07T14:29:03;35.43;27.93
65470;DHT22;52067;50.710;14.492;2023-09-07T14:31:28;35.41;28.82
65470;DHT22;52067;50.710;14.492;2023-09-07T14:33:53;36.83;26.24
65470;DHT22;52067;50.710;14.492;2023-09-07T14:36:18;34.95;29.66
65470;DHT22;52067;50.710;14.492;2023-09-07T14:38:44;35.74;28.18
65470;DHT22;52067;50.710;14.492;2023-09-07T14:41:10;35.40;27.80
65470;DHT22;52067;50.710;14.492;2023-09-07T14:43:41;36.54;26.66
65470;DHT22;52067;50.710;14.492;2023-09-07T14:46:06;37.27;26.06
65470;DHT22;52067;50.710;14.492;2023-09-07T14:48:31;34.18;27.65
65470;DHT22;52067;50.710;14.492;2023-09-07T14:50:56;34.38;28.72
65470;DHT22;52067;50.710;14.492;2023-09-07T14:53:22;34.79;28.36
65470;DHT22;52067;50.710;14.492;2023-09-07T14:55:47;36.26;27.07
65470;DHT22;52067;50.710;14.492;2023-09-07T14:58:12;36.90;26.91
65470;DHT22;52067;50.710;14.492;2023-09-07T15:00:38;37.55;26.33
65470;DHT22;52067;50.710;14.492;2023-09-07T15:03:03;36.73;25.01
65470;DHT22;52067;50.710;14.492;2023-09-07T15:05:29;33.57;29.06
65470;DHT22;52067;50.710;14.492;2023-09-07T15:07:54;33.21;28.82